createdAt,value
2022-12-28T00:02:18.418Z,100827.25
2022-12-28T00:04:45.952Z,100830.66
2022-12-28T00:07:13.158Z,100823.00
2022-12-28T00:09:40.293Z,100828.72
2022-12-28T00:12:07.721Z,100828.22
2022-12-28T00:14:35.026Z,100828.34
2022-12-28T00:17:02.187Z,100829.78
2022-12-28T00:19:30.501Z,100830.81
2022-12-28T00:21:57.645Z,100836.72
2022-12-28T00:24:25.300Z,100833.09
2022-12-28T00:26:52.902Z,100831.13
2022-12-28T00:29:20.261Z,100836.13
2022-12-28T00:31:47.550Z,100836.66
2022-12-28T00:34:15.295Z,100837.47
2022-12-28T00:37:08.385Z,100827.59
2022-12-28T00:39:30.208Z,100826.09
2022-12-28T00:41:57.425Z,100835.28
2022-12-28T00:44:24.721Z,100839.25
2022-12-28T00:46:52.212Z,100847.41
2022-12-28T00:49:19.401Z,100838.66
2022-12-28T00:51:46.580Z,100839.12
2022-12-28T00:54:14.016Z,100841.59
2022-12-28T00:56:43.144Z,100848.22
2022-12-28T00:59:10.411Z,100852.28
2022-12-28T01:01:38.526Z,100856.53
2022-12-28T01:04:05.762Z,100854.63
2022-12-28T01:06:32.989Z,100861.00
2022-12-28T01:09:00.452Z,100858.97
2022-12-28T01:11:28.500Z,100858.47
2022-12-28T01:13:58.060Z,100860.87
2022-12-28T01:16:35.086Z,100861.59
2022-12-28T01:19:03.535Z,100858.94
2022-12-28T01:21:32.431Z,100867.94
2022-12-28T01:24:00.651Z,100862.47
2022-12-28T01:26:28.277Z,100864.63
2022-12-28T01:28:56.385Z,100870.41
2022-12-28T01:31:23.625Z,100867.81
2022-12-28T01:33:51.155Z,100874.69
2022-12-28T01:36:22.526Z,100872.06
2022-12-28T01:38:52.295Z,100868.53
2022-12-28T01:41:20.476Z,100867.16
2022-12-28T01:44:07.582Z,100863.41
2022-12-28T01:46:37.231Z,100867.13
2022-12-28T01:49:24.327Z,100868.06
2022-12-28T01:51:56.732Z,100850.41
2022-12-28T01:54:24.270Z,100845.97
2022-12-28T01:56:51.718Z,100854.44
2022-12-28T01:59:19.500Z,100848.31
2022-12-28T02:01:46.801Z,100842.03
2022-12-28T02:04:14.336Z,100833.97
2022-12-28T02:06:41.502Z,100837.50
2022-12-28T02:09:17.181Z,100835.19
2022-12-28T02:11:44.597Z,100825.56
2022-12-28T02:14:11.861Z,100828.31
2022-12-28T02:16:39.382Z,100823.37
2022-12-28T02:19:08.350Z,100822.56
2022-12-28T02:21:48.318Z,100822.56
2022-12-28T02:24:31.164Z,100819.59
2022-12-28T02:27:17.485Z,100817.81
2022-12-28T02:29:53.371Z,100829.25
2022-12-28T02:32:39.632Z,100831.38
2022-12-28T02:35:08.716Z,100828.84
2022-12-28T02:37:49.161Z,100827.28
2022-12-28T02:40:18.938Z,100823.16
2022-12-28T02:42:46.192Z,100822.94
2022-12-28T02:45:48.114Z,100829.44
2022-12-28T02:48:34.672Z,100827.47
2022-12-28T02:51:17.955Z,100825.69
2022-12-28T02:53:51.511Z,100824.13
2022-12-28T02:56:18.689Z,100830.44
2022-12-28T02:58:57.940Z,100820.94
2022-12-28T03:01:44.067Z,100824.84
2022-12-28T03:04:19.215Z,100821.66
2022-12-28T03:07:13.603Z,100831.44
2022-12-28T03:10:13.631Z,100828.59
2022-12-28T03:13:03.992Z,100817.09
2022-12-28T03:15:34.174Z,100821.06
2022-12-28T03:18:23.203Z,100812.34
2022-12-28T03:21:09.944Z,100803.09
2022-12-28T03:23:55.840Z,100802.41
2022-12-28T03:26:41.973Z,100796.44
2022-12-28T03:29:28.569Z,100799.44
2022-12-28T03:31:56.215Z,100808.09
2022-12-28T03:34:23.437Z,100802.97
2022-12-28T03:37:05.248Z,100795.53
2022-12-28T03:39:37.206Z,100791.97
2022-12-28T03:42:49.489Z,100790.06
2022-12-28T03:45:44.271Z,100791.25
2022-12-28T03:48:09.640Z,100782.16
2022-12-28T03:50:38.148Z,100774.81
2022-12-28T03:53:07.007Z,100782.59
2022-12-28T03:55:35.673Z,100779.87
2022-12-28T03:58:03.730Z,100764.22
2022-12-28T04:00:30.978Z,100769.19
2022-12-28T04:02:58.654Z,100767.06
2022-12-28T04:05:25.987Z,100762.41
2022-12-28T04:07:53.500Z,100761.34
2022-12-28T04:10:21.231Z,100759.91
2022-12-28T04:12:49.164Z,100751.25
2022-12-28T04:15:17.952Z,100755.41
2022-12-28T04:17:45.455Z,100750.50
2022-12-28T04:20:12.653Z,100745.81
2022-12-28T04:22:39.873Z,100748.00
2022-12-28T04:25:07.502Z,100738.03
2022-12-28T04:27:35.253Z,100740.88
2022-12-28T04:30:02.838Z,100738.50
2022-12-28T04:32:31.395Z,100739.16
2022-12-28T04:34:58.615Z,100739.75
2022-12-28T04:37:27.561Z,100738.28
2022-12-28T04:39:57.301Z,100731.22
2022-12-28T04:42:25.574Z,100729.97
2022-12-28T04:44:52.796Z,100731.00
2022-12-28T04:47:20.443Z,100747.38
2022-12-28T04:49:47.659Z,100753.09
2022-12-28T04:52:15.034Z,100743.53
2022-12-28T04:54:42.506Z,100739.88
2022-12-28T04:57:09.690Z,100748.66
2022-12-28T04:59:36.928Z,100749.72
2022-12-28T05:02:04.490Z,100754.47
2022-12-28T05:04:31.858Z,100764.03
2022-12-28T05:06:58.984Z,100754.00
2022-12-28T05:09:26.443Z,100754.38
2022-12-28T05:11:53.730Z,100752.63
2022-12-28T05:14:20.925Z,100740.38
2022-12-28T05:16:50.103Z,100754.94
2022-12-28T05:19:17.342Z,100750.66
2022-12-28T05:21:45.436Z,100753.22
2022-12-28T05:24:12.907Z,100749.28
2022-12-28T05:26:40.096Z,100760.88
2022-12-28T05:29:07.240Z,100762.41
2022-12-28T05:31:34.707Z,100749.66
2022-12-28T05:34:01.947Z,100762.50
2022-12-28T05:36:29.126Z,100749.78
2022-12-28T05:38:56.872Z,100742.88
2022-12-28T05:41:25.125Z,100746.19
2022-12-28T05:43:52.694Z,100753.22
2022-12-28T05:46:21.634Z,100744.75
2022-12-28T05:48:48.888Z,100748.28
2022-12-28T05:51:17.250Z,100751.03
2022-12-28T05:53:45.041Z,100752.31
2022-12-28T05:56:14.690Z,100740.88
2022-12-28T05:58:46.121Z,100741.31
2022-12-28T06:01:15.063Z,100752.37
2022-12-28T06:03:42.881Z,100761.69
2022-12-28T06:06:14.624Z,100758.53
2022-12-28T06:08:42.049Z,100753.34
2022-12-28T06:11:10.477Z,100760.66
2022-12-28T06:13:37.680Z,100756.81
2022-12-28T06:16:06.020Z,100748.16
2022-12-28T06:18:36.288Z,100753.38
2022-12-28T06:21:07.470Z,100754.16
2022-12-28T06:23:34.752Z,100754.69
2022-12-28T06:26:02.636Z,100760.75
2022-12-28T06:28:29.839Z,100752.94
2022-12-28T06:31:04.306Z,100754.00
2022-12-28T06:33:31.789Z,100751.72
2022-12-28T06:35:59.054Z,100757.38
2022-12-28T06:38:27.249Z,100761.56
2022-12-28T06:41:13.006Z,100767.22
2022-12-28T06:43:41.952Z,100762.72
2022-12-28T06:46:10.041Z,100758.97
2022-12-28T06:48:37.471Z,100763.06
2022-12-28T06:51:05.804Z,100761.81
2022-12-28T06:53:34.330Z,100761.97
2022-12-28T06:56:05.944Z,100763.59
2022-12-28T06:58:33.536Z,100760.19
2022-12-28T07:01:10.959Z,100757.38
2022-12-28T07:03:38.548Z,100767.03
2022-12-28T07:06:05.916Z,100753.50
2022-12-28T07:08:33.119Z,100761.12
2022-12-28T07:11:04.402Z,100753.84
2022-12-28T07:13:31.622Z,100754.78
2022-12-28T07:16:01.329Z,100759.41
2022-12-28T07:18:28.728Z,100757.22
2022-12-28T07:20:59.659Z,100753.91
2022-12-28T07:23:30.096Z,100754.41
2022-12-28T07:25:58.453Z,100750.94
2022-12-28T07:28:25.690Z,100747.88
2022-12-28T07:30:52.872Z,100741.97
2022-12-28T07:33:20.588Z,100741.78
2022-12-28T07:35:47.732Z,100735.13
2022-12-28T07:38:20.955Z,100744.31
2022-12-28T07:40:48.921Z,100728.59
2022-12-28T07:43:16.103Z,100730.25
2022-12-28T07:45:43.298Z,100741.19
2022-12-28T07:48:10.803Z,100740.66
2022-12-28T07:50:38.318Z,100741.34
2022-12-28T07:53:05.635Z,100736.19
2022-12-28T07:55:33.136Z,100748.28
2022-12-28T07:58:00.306Z,100746.69
2022-12-28T08:00:27.483Z,100755.09
2022-12-28T08:02:55.627Z,100761.72
2022-12-28T08:05:22.834Z,100764.84
2022-12-28T08:07:50.086Z,100767.03
2022-12-28T08:10:17.541Z,100764.25
2022-12-28T08:12:44.795Z,100758.50
2022-12-28T08:15:12.023Z,100754.53
2022-12-28T08:17:39.438Z,100755.19
2022-12-28T08:20:06.838Z,100755.81
2022-12-28T08:22:34.060Z,100751.59
2022-12-28T08:25:01.553Z,100751.22
2022-12-28T08:27:31.184Z,100741.69
2022-12-28T08:30:00.741Z,100735.69
2022-12-28T08:32:28.267Z,100727.44
2022-12-28T08:34:55.669Z,100729.50
2022-12-28T08:37:22.860Z,100736.84
2022-12-28T08:39:50.288Z,100737.88
2022-12-28T08:42:17.543Z,100741.44
2022-12-28T08:44:44.720Z,100744.41
2022-12-28T08:47:12.189Z,100744.81
2022-12-28T08:49:39.441Z,100753.72
2022-12-28T08:52:07.625Z,100746.16
2022-12-28T08:54:35.081Z,100747.69
2022-12-28T08:57:02.330Z,100743.09
2022-12-28T08:59:29.491Z,100754.16
2022-12-28T09:01:57.047Z,100747.41
2022-12-28T09:04:24.390Z,100757.41
2022-12-28T09:06:51.624Z,100749.09
2022-12-28T09:09:19.959Z,100747.25
2022-12-28T09:11:47.326Z,100746.59
2022-12-28T09:14:20.724Z,100735.53
2022-12-28T09:16:49.953Z,100736.25
2022-12-28T09:19:17.125Z,100728.56
2022-12-28T09:21:48.867Z,100722.28
2022-12-28T09:24:16.560Z,100722.19
2022-12-28T09:26:44.029Z,100719.72
2022-12-28T09:29:11.945Z,100714.59
2022-12-28T09:31:40.636Z,100713.41
2022-12-28T09:34:38.047Z,100704.97
2022-12-28T09:36:56.015Z,100700.06
2022-12-28T09:39:25.081Z,100704.25
2022-12-28T09:42:02.702Z,100703.44
2022-12-28T09:44:36.173Z,100707.16
2022-12-28T09:47:12.436Z,100710.50
2022-12-28T09:49:58.223Z,100708.41
2022-12-28T09:52:28.562Z,100694.00
2022-12-28T09:54:56.399Z,100695.06
2022-12-28T09:57:24.039Z,100686.66
2022-12-28T09:59:51.291Z,100676.69
2022-12-28T10:02:30.140Z,100677.91
2022-12-28T10:04:57.740Z,100669.78
2022-12-28T10:07:24.894Z,100665.62
2022-12-28T10:09:52.170Z,100658.41
2022-12-28T10:12:24.414Z,100655.34
2022-12-28T10:14:52.370Z,100652.00
2022-12-28T10:17:21.014Z,100648.28
2022-12-28T10:19:48.353Z,100642.59
2022-12-28T10:22:19.448Z,100644.97
2022-12-28T10:24:47.104Z,100649.12
2022-12-28T10:27:20.187Z,100652.84
2022-12-28T10:29:48.113Z,100643.13
2022-12-28T10:32:15.373Z,100639.94
2022-12-28T10:34:53.323Z,100645.84
2022-12-28T10:37:20.911Z,100644.06
2022-12-28T10:39:49.449Z,100652.84
2022-12-28T10:42:26.555Z,100643.63
2022-12-28T10:44:54.429Z,100647.03
2022-12-28T10:47:29.377Z,100649.78
2022-12-28T10:52:50.776Z,100648.03
2022-12-28T10:55:26.078Z,100656.50
2022-12-28T10:58:27.512Z,100659.19
2022-12-28T11:00:41.123Z,100655.81
2022-12-28T11:03:18.812Z,100660.81
2022-12-28T11:05:52.826Z,100660.37
2022-12-28T11:08:24.291Z,100655.81
2022-12-28T11:10:56.855Z,100650.56
2022-12-28T11:13:24.034Z,100650.06
2022-12-28T11:15:51.513Z,100643.19
2022-12-28T11:18:19.121Z,100642.12
2022-12-28T11:20:47.363Z,100631.34
2022-12-28T11:23:22.372Z,100632.41
2022-12-28T11:25:49.608Z,100627.81
2022-12-28T11:28:18.575Z,100627.28
2022-12-28T11:30:46.835Z,100622.12
2022-12-28T11:33:26.228Z,100617.59
2022-12-28T11:35:57.509Z,100611.25
2022-12-28T11:38:36.716Z,100606.03
2022-12-28T11:41:04.168Z,100592.50
2022-12-28T11:43:32.974Z,100597.91
2022-12-28T11:46:19.130Z,100598.28
2022-12-28T11:49:00.258Z,100598.78
2022-12-28T11:51:27.445Z,100594.91
2022-12-28T11:54:07.333Z,100585.81
2022-12-28T11:56:43.715Z,100572.16
2022-12-28T11:59:27.172Z,100579.09
2022-12-28T12:01:55.436Z,100574.59
2022-12-28T12:04:30.485Z,100568.56
2022-12-28T12:06:57.732Z,100575.31
2022-12-28T12:09:29.388Z,100570.13
2022-12-28T12:11:59.658Z,100564.56
2022-12-28T12:14:28.210Z,100561.09
2022-12-28T12:17:03.405Z,100556.63
2022-12-28T12:19:32.225Z,100544.72
2022-12-28T12:22:01.830Z,100544.97
2022-12-28T12:24:54.533Z,100539.75
2022-12-28T12:27:32.536Z,100534.66
2022-12-28T12:30:00.587Z,100532.72
2022-12-28T12:32:31.075Z,100531.22
2022-12-28T12:35:01.157Z,100525.66
2022-12-28T12:37:31.621Z,100519.78
2022-12-28T12:40:14.043Z,100518.19
2022-12-28T12:42:41.610Z,100514.63
2022-12-28T12:45:11.648Z,100521.47
2022-12-28T12:47:57.213Z,100517.97
2022-12-28T12:50:30.433Z,100509.72
2022-12-28T12:53:04.893Z,100507.63
2022-12-28T12:55:35.513Z,100507.41
2022-12-28T12:58:03.208Z,100509.94
2022-12-28T13:00:32.980Z,100502.75
2022-12-28T13:03:20.090Z,100499.03
2022-12-28T13:05:54.140Z,100495.75
2022-12-28T13:08:23.229Z,100484.97
2022-12-28T13:10:50.415Z,100490.25
2022-12-28T13:13:18.550Z,100488.75
2022-12-28T13:15:46.030Z,100487.41
2022-12-28T13:18:44.090Z,100486.09
2022-12-28T13:21:10.626Z,100488.03
2022-12-28T13:23:43.794Z,100481.59
2022-12-28T13:26:11.595Z,100464.66
2022-12-28T13:28:38.865Z,100470.16
2022-12-28T13:31:09.195Z,100473.34
2022-12-28T13:33:37.111Z,100474.16
2022-12-28T13:36:05.032Z,100464.53
2022-12-28T13:38:35.409Z,100460.06
2022-12-28T13:41:03.225Z,100464.00
2022-12-28T13:43:37.404Z,100464.72
2022-12-28T13:46:08.136Z,100454.88
2022-12-28T13:48:36.228Z,100449.41
2022-12-28T13:51:03.915Z,100444.03
2022-12-28T13:53:31.407Z,100439.66
2022-12-28T13:55:58.984Z,100429.53
2022-12-28T13:58:27.481Z,100427.78
2022-12-28T14:00:55.530Z,100426.22
2022-12-28T14:03:23.086Z,100425.09
2022-12-28T14:05:59.960Z,100429.16
2022-12-28T14:08:27.734Z,100419.44
2022-12-28T14:10:54.946Z,100421.44
2022-12-28T14:13:22.276Z,100426.87
2022-12-28T14:15:49.871Z,100427.63
2022-12-28T14:18:17.663Z,100425.94
2022-12-28T14:21:04.125Z,100422.44
2022-12-28T14:23:35.717Z,100427.97
2022-12-28T14:26:05.170Z,100422.69
2022-12-28T14:28:35.859Z,100432.63
2022-12-28T14:31:06.443Z,100425.31
2022-12-28T14:33:34.958Z,100422.69
2022-12-28T14:36:03.421Z,100425.34
2022-12-28T14:38:40.465Z,100427.47
2022-12-28T14:41:14.254Z,100433.09
2022-12-28T14:43:41.448Z,100432.03
2022-12-28T14:46:17.182Z,100436.81
2022-12-28T14:48:45.518Z,100433.78
2022-12-28T14:51:17.485Z,100423.37
2022-12-28T14:53:45.402Z,100433.44
2022-12-28T14:56:13.744Z,100432.63
2022-12-28T14:58:50.606Z,100429.84
2022-12-28T15:01:19.188Z,100426.13
2022-12-28T15:03:50.580Z,100432.69
2022-12-28T15:06:19.942Z,100435.19
2022-12-28T15:08:48.840Z,100437.69
2022-12-28T15:11:17.359Z,100432.41
2022-12-28T15:13:44.750Z,100430.34
2022-12-28T15:16:13.273Z,100426.13
2022-12-28T15:18:46.946Z,100426.31
2022-12-28T15:21:15.624Z,100427.44
2022-12-28T15:23:44.702Z,100426.34
2022-12-28T15:26:12.660Z,100425.19
2022-12-28T15:28:40.371Z,100433.13
2022-12-28T15:31:08.561Z,100437.22
2022-12-28T15:33:35.933Z,100436.87
2022-12-28T15:36:10.777Z,100430.16
2022-12-28T15:38:40.786Z,100432.69
2022-12-28T15:41:28.440Z,100427.88
2022-12-28T15:43:55.835Z,100419.72
2022-12-28T15:46:23.452Z,100416.37
2022-12-28T15:48:50.704Z,100425.47
2022-12-28T15:51:17.931Z,100425.12
2022-12-28T15:53:45.832Z,100427.22
2022-12-28T15:56:18.797Z,100426.72
2022-12-28T15:58:46.405Z,100429.84
2022-12-28T16:01:14.308Z,100439.84
2022-12-28T16:03:41.996Z,100436.94
2022-12-28T16:06:09.444Z,100440.22
2022-12-28T16:08:36.703Z,100435.09
2022-12-28T16:11:22.490Z,100429.19
2022-12-28T16:13:50.762Z,100424.88
2022-12-28T16:16:18.464Z,100422.00
2022-12-28T16:18:45.684Z,100413.31
2022-12-28T16:21:13.279Z,100415.25
2022-12-28T16:23:42.069Z,100411.62
2022-12-28T16:26:10.446Z,100425.28
2022-12-28T16:28:37.758Z,100423.37
2022-12-28T16:31:05.534Z,100423.94
2022-12-28T16:33:32.867Z,100423.56
2022-12-28T16:36:10.616Z,100423.37
2022-12-28T16:38:38.092Z,100421.06
2022-12-28T16:41:05.775Z,100425.66
2022-12-28T16:43:33.151Z,100411.88
2022-12-28T16:46:04.960Z,100416.78
2022-12-28T16:48:32.394Z,100419.44
2022-12-28T16:50:59.869Z,100422.28
2022-12-28T16:53:27.708Z,100424.19
2022-12-28T16:55:55.003Z,100423.03
2022-12-28T16:58:22.223Z,100420.50
2022-12-28T17:00:49.728Z,100423.63
2022-12-28T17:03:17.124Z,100419.66
2022-12-28T17:05:44.818Z,100418.91
2022-12-28T17:08:12.429Z,100419.56
2022-12-28T17:10:40.986Z,100416.47
2022-12-28T17:13:08.324Z,100426.44
2022-12-28T17:15:38.399Z,100419.78
2022-12-28T17:18:05.783Z,100420.06
2022-12-28T17:20:35.784Z,100414.75
2022-12-28T17:23:03.807Z,100414.69
2022-12-28T17:25:31.466Z,100419.28
2022-12-28T17:27:59.169Z,100422.81
2022-12-28T17:30:27.277Z,100413.59
2022-12-28T17:32:54.544Z,100420.50
2022-12-28T17:35:21.777Z,100408.66
2022-12-28T17:37:49.337Z,100408.25
2022-12-28T17:40:16.611Z,100406.84
2022-12-28T17:42:43.841Z,100397.06
2022-12-28T17:45:12.118Z,100410.56
2022-12-28T17:47:39.547Z,100406.84
2022-12-28T17:50:07.159Z,100390.31
2022-12-28T17:52:34.845Z,100389.13
2022-12-28T17:55:03.479Z,100387.69
2022-12-28T17:57:35.306Z,100378.00
2022-12-28T18:00:06.666Z,100375.84
2022-12-28T18:02:39.660Z,100362.00
2022-12-28T18:05:07.417Z,100364.81
2022-12-28T18:07:34.823Z,100365.84
2022-12-28T18:10:01.998Z,100360.97
2022-12-28T18:12:29.464Z,100361.38
2022-12-28T18:14:56.655Z,100354.63
2022-12-28T18:17:23.951Z,100355.84
2022-12-28T18:19:53.525Z,100352.53
2022-12-28T18:22:23.053Z,100346.66
2022-12-28T18:24:50.697Z,100340.06
2022-12-28T18:27:18.368Z,100331.78
2022-12-28T18:29:45.602Z,100337.88
2022-12-28T18:32:12.842Z,100337.97
2022-12-28T18:34:40.296Z,100339.66
2022-12-28T18:37:07.787Z,100344.91
2022-12-28T18:39:35.329Z,100344.44
2022-12-28T18:42:03.229Z,100351.44
2022-12-28T18:44:30.524Z,100358.97
2022-12-28T18:46:57.749Z,100365.66
2022-12-28T18:49:25.273Z,100367.94
2022-12-28T18:51:52.505Z,100365.03
2022-12-28T18:54:19.749Z,100364.81
2022-12-28T18:56:47.386Z,100364.03
2022-12-28T18:59:14.679Z,100355.16
2022-12-28T19:04:30.084Z,100363.09
2022-12-28T19:06:57.570Z,100365.13
2022-12-28T19:09:24.929Z,100362.81
2022-12-28T19:11:52.889Z,100364.62
2022-12-28T19:14:20.128Z,100363.38
2022-12-28T19:16:47.569Z,100360.53
2022-12-28T19:19:17.254Z,100367.69
2022-12-28T19:21:44.705Z,100367.69
2022-12-28T19:24:15.858Z,100374.22
2022-12-28T19:26:43.605Z,100367.56
2022-12-28T19:29:11.570Z,100355.13
2022-12-28T19:31:39.011Z,100353.31
2022-12-28T19:34:06.835Z,100354.50
2022-12-28T19:36:34.189Z,100354.94
2022-12-28T19:39:01.389Z,100348.87
2022-12-28T19:41:29.214Z,100350.00
2022-12-28T19:43:56.460Z,100352.97
2022-12-28T19:46:30.711Z,100354.69
2022-12-28T19:48:59.147Z,100342.97
2022-12-28T19:51:30.712Z,100341.97
2022-12-28T19:53:59.833Z,100337.12
2022-12-28T19:56:27.428Z,100347.91
2022-12-28T19:59:01.079Z,100337.12
2022-12-28T20:01:33.189Z,100338.66
2022-12-28T20:04:01.079Z,100325.63
2022-12-28T20:06:28.828Z,100327.00
2022-12-28T20:08:57.238Z,100333.88
2022-12-28T20:11:25.410Z,100337.97
2022-12-28T20:13:59.567Z,100329.59
2022-12-28T20:16:28.085Z,100332.25
2022-12-28T20:18:55.568Z,100325.84
2022-12-28T20:21:23.878Z,100324.87
2022-12-28T20:23:52.145Z,100331.66
2022-12-28T20:26:20.010Z,100325.47
2022-12-28T20:28:51.041Z,100318.31
2022-12-28T20:31:18.875Z,100314.00
2022-12-28T20:33:46.646Z,100311.00
2022-12-28T20:36:15.100Z,100320.09
2022-12-28T20:38:42.566Z,100326.91
2022-12-28T20:41:41.729Z,100309.13
2022-12-28T20:44:11.045Z,100308.44
2022-12-28T20:46:38.524Z,100320.75
2022-12-28T20:49:05.962Z,100312.78
2022-12-28T20:51:33.822Z,100310.66
2022-12-28T20:54:01.634Z,100318.75
2022-12-28T20:56:28.913Z,100304.06
2022-12-28T20:58:56.659Z,100307.59
2022-12-28T21:01:24.111Z,100306.97
2022-12-28T21:03:51.473Z,100308.94
2022-12-28T21:06:19.332Z,100302.75
2022-12-28T21:08:46.599Z,100301.50
2022-12-28T21:11:14.172Z,100309.41
2022-12-28T21:13:44.622Z,100307.03
2022-12-28T21:16:13.018Z,100302.53
2022-12-28T21:18:40.622Z,100306.56
2022-12-28T21:21:13.195Z,100304.81
2022-12-28T21:23:40.411Z,100303.28
2022-12-28T21:26:09.856Z,100295.69
2022-12-28T21:28:37.217Z,100310.06
2022-12-28T21:31:06.140Z,100308.37
2022-12-28T21:33:33.854Z,100304.81
2022-12-28T21:36:01.759Z,100297.38
2022-12-28T21:38:30.627Z,100300.81
2022-12-28T21:40:58.404Z,100293.94
2022-12-28T21:43:25.629Z,100288.88
2022-12-28T21:46:22.134Z,100285.56
2022-12-28T21:48:49.630Z,100290.28
2022-12-28T21:51:32.245Z,100286.38
2022-12-28T21:54:00.435Z,100285.34
2022-12-28T21:56:28.152Z,100286.16
2022-12-28T21:58:55.829Z,100277.94
2022-12-28T22:01:42.379Z,100270.28
2022-12-28T22:04:33.026Z,100268.72
2022-12-28T22:07:00.640Z,100269.94
2022-12-28T22:09:47.008Z,100272.88
2022-12-28T22:12:33.383Z,100268.44
2022-12-28T22:15:21.754Z,100273.81
2022-12-28T22:17:49.116Z,100277.09
2022-12-28T22:20:16.668Z,100269.75
2022-12-28T22:22:44.247Z,100266.66
2022-12-28T22:25:11.741Z,100266.94
2022-12-28T22:27:39.571Z,100263.53
2022-12-28T22:30:07.071Z,100260.13
2022-12-28T22:32:34.507Z,100250.22
2022-12-28T22:35:02.068Z,100247.75
2022-12-28T22:37:29.305Z,100244.25
2022-12-28T22:39:56.554Z,100235.50
2022-12-28T22:42:24.096Z,100240.34
2022-12-28T22:44:51.668Z,100235.31
2022-12-28T22:47:19.273Z,100227.94
2022-12-28T22:49:47.288Z,100222.59
2022-12-28T22:52:14.489Z,100226.78
2022-12-28T22:54:41.679Z,100217.63
2022-12-28T22:57:09.165Z,100215.00
2022-12-28T22:59:36.476Z,100215.28
2022-12-28T23:02:03.850Z,100216.16
2022-12-28T23:04:31.570Z,100213.69
2022-12-28T23:07:03.617Z,100217.44
2022-12-28T23:09:31.948Z,100211.75
2022-12-28T23:11:59.165Z,100207.47
2022-12-28T23:14:45.228Z,100207.25
2022-12-28T23:17:13.335Z,100200.00
2022-12-28T23:20:02.599Z,100190.50
2022-12-28T23:22:52.420Z,100196.75
2022-12-28T23:25:39.824Z,100189.25
2022-12-28T23:28:10.114Z,100193.84
2022-12-28T23:30:38.095Z,100188.19
2022-12-28T23:33:05.373Z,100193.72
2022-12-28T23:35:32.922Z,100181.91
2022-12-28T23:38:00.145Z,100182.47
2022-12-28T23:40:27.543Z,100177.94
2022-12-28T23:42:55.119Z,100177.44
2022-12-28T23:45:22.507Z,100172.09
2022-12-28T23:47:51.481Z,100174.53
2022-12-28T23:50:19.569Z,100179.53
2022-12-28T23:52:46.794Z,100174.56
2022-12-28T23:55:13.989Z,100168.84
2022-12-28T23:57:41.490Z,100157.75
